Time;durP1;ratioP1;P1;durP2;ratioP2;P2;SDS_P1;SDS_P2;PMS_P1;PMS_P2;Temp;Humidity;BMP_temperature;BMP_pressure;BME280_temperature;BME280_humidity;BME280_pressure;Samples;Min_cycle;Max_cycle;Signal;HPM_P1;HPM_P2
2022/02/18 00:00:34;;;;;;;4.90;1.23;;;;;;;;;;5044260;28;20046;-70
2022/02/18 00:03:00;;;;;;;3.90;0.77;;;;;;;;;;5044943;28;20025;-70
2022/02/18 00:05:28;;;;;;;0.68;0.40;;;;;;;;;;5044434;28;20044;-70
2022/02/18 00:07:57;;;;;;;2.33;0.65;;;;;;;;;;5044484;28;20034;-70
2022/02/18 00:10:27;;;;;;;3.22;0.68;;;;;;;;;;5044098;28;20500;-70
2022/02/18 00:12:52;;;;;;;4.68;0.52;;;;;;;;;;5026444;28;20334;-70
2022/02/18 00:15:20;;;;;;;5.47;0.80;;;;;;;;;;5043703;28;20055;-70
2022/02/18 00:17:48;;;;;;;5.72;0.98;;;;;;;;;;5026199;28;20076;-70
2022/02/18 00:20:19;;;;;;;2.22;0.45;;;;;;;;;;5043997;28;20444;-69
2022/02/18 00:22:45;;;;;;;4.50;0.77;;;;;;;;;;5044055;28;20397;-70
2022/02/18 00:25:14;;;;;;;4.82;0.60;;;;;;;;;;5044208;28;20029;-70
2022/02/18 00:27:40;;;;;;;2.42;0.77;;;;;;;;;;5044020;28;20056;-70
2022/02/18 00:30:08;;;;;;;4.78;0.70;;;;;;;;;;5043477;28;20013;-70
2022/02/18 00:32:34;;;;;;;1.67;0.57;;;;;;;;;;5043825;28;20025;-70
2022/02/18 00:35:02;;;;;;;4.47;1.15;;;;;;;;;;5026050;28;20029;-70
2022/02/18 00:37:31;;;;;;;7.88;0.85;;;;;;;;;;5043472;28;20053;-70
2022/02/18 00:39:56;;;;;;;2.92;0.85;;;;;;;;;;5022324;28;20038;-70
2022/02/18 00:42:23;;;;;;;1.20;0.55;;;;;;;;;;5024270;28;20038;-70
2022/02/18 00:44:51;;;;;;;3.60;0.68;;;;;;;;;;5023744;28;20033;-70
2022/02/18 00:47:18;;;;;;;1.58;0.30;;;;;;;;;;5023915;28;20030;-70
2022/02/18 00:49:43;;;;;;;5.22;0.57;;;;;;;;;;5022754;28;20026;-70
2022/02/18 00:52:09;;;;;;;6.63;0.80;;;;;;;;;;5023657;28;20033;-71
2022/02/18 00:54:37;;;;;;;5.28;0.65;;;;;;;;;;5023423;28;20037;-70
2022/02/18 00:57:02;;;;;;;2.17;0.60;;;;;;;;;;5023388;28;20489;-70
2022/02/18 00:59:31;;;;;;;2.67;0.65;;;;;;;;;;5023545;28;20034;-70
2022/02/18 01:01:56;;;;;;;3.35;0.73;;;;;;;;;;5023667;28;20061;-70
2022/02/18 01:04:27;;;;;;;3.13;0.50;;;;;;;;;;5023277;28;20030;-70
2022/02/18 01:06:52;;;;;;;2.78;1.20;;;;;;;;;;5023684;28;20089;-71
2022/02/18 01:09:18;;;;;;;2.80;0.63;;;;;;;;;;5023163;28;20046;-70
2022/02/18 01:11:46;;;;;;;6.28;1.00;;;;;;;;;;5023163;28;20111;-70
2022/02/18 01:14:15;;;;;;;2.40;0.50;;;;;;;;;;5023541;28;20040;-70
2022/02/18 01:16:40;;;;;;;3.03;0.50;;;;;;;;;;5023219;28;20026;-70
2022/02/18 01:19:06;;;;;;;1.73;0.50;;;;;;;;;;5021950;28;20026;-71
2022/02/18 01:21:34;;;;;;;2.95;0.93;;;;;;;;;;5023189;28;20054;-70
2022/02/18 01:24:03;;;;;;;3.75;0.70;;;;;;;;;;5021974;28;20029;-70
2022/02/18 01:26:31;;;;;;;2.50;0.52;;;;;;;;;;5023316;28;20099;-70
2022/02/18 01:28:57;;;;;;;6.57;0.82;;;;;;;;;;5023100;28;20029;-71
2022/02/18 01:31:22;;;;;;;2.17;0.65;;;;;;;;;;5022331;28;20177;-70
2022/02/18 01:33:48;;;;;;;4.28;0.90;;;;;;;;;;5023022;28;20117;-71
2022/02/18 01:36:14;;;;;;;1.23;0.40;;;;;;;;;;5023159;28;20041;-70
2022/02/18 01:38:41;;;;;;;3.67;0.77;;;;;;;;;;5023239;28;20032;-70
2022/02/18 01:41:07;;;;;;;7.20;0.68;;;;;;;;;;5038551;28;20046;-70
2022/02/18 01:43:36;;;;;;;3.80;0.60;;;;;;;;;;5024983;28;20492;-70
2022/02/18 01:46:05;;;;;;;3.63;0.68;;;;;;;;;;5058008;28;20031;-70
2022/02/18 01:48:30;;;;;;;4.53;0.60;;;;;;;;;;5042447;28;20469;-70
2022/02/18 01:50:59;;;;;;;1.23;0.38;;;;;;;;;;5042654;28;20033;-70
2022/02/18 01:53:25;;;;;;;4.90;0.90;;;;;;;;;;5042628;28;20096;-70
2022/02/18 01:55:50;;;;;;;0.28;0.20;;;;;;;;;;5024706;28;20037;-70
2022/02/18 01:58:16;;;;;;;3.50;0.47;;;;;;;;;;5042342;28;20029;-70
2022/02/18 02:00:41;;;;;;;1.17;0.40;;;;;;;;;;5042448;28;20048;-70
2022/02/18 02:03:07;;;;;;;1.48;0.35;;;;;;;;;;5042789;28;20033;-71
2022/02/18 02:05:33;;;;;;;2.97;0.52;;;;;;;;;;5042027;28;20087;-70
2022/02/18 02:08:01;;;;;;;2.72;0.45;;;;;;;;;;5042894;28;20044;-71
2022/02/18 02:10:27;;;;;;;7.75;0.90;;;;;;;;;;5042190;28;20029;-70
2022/02/18 02:12:54;;;;;;;2.78;0.60;;;;;;;;;;5042786;28;20106;-70
2022/02/18 02:15:23;;;;;;;4.63;0.63;;;;;;;;;;5042603;28;20053;-71
2022/02/18 02:17:51;;;;;;;3.83;0.68;;;;;;;;;;5042453;28;20026;-70
2022/02/18 02:20:18;;;;;;;2.10;0.63;;;;;;;;;;5042058;28;20021;-71
2022/02/18 02:22:44;;;;;;;5.25;0.65;;;;;;;;;;5042396;28;20033;-70
2022/02/18 02:25:12;;;;;;;3.30;0.60;;;;;;;;;;5042313;28;20081;-70
2022/02/18 02:27:39;;;;;;;2.25;0.50;;;;;;;;;;5042220;28;20124;-70
2022/02/18 02:30:06;;;;;;;6.75;0.85;;;;;;;;;;5042003;28;20513;-71
2022/02/18 02:32:34;;;;;;;3.08;0.63;;;;;;;;;;5041938;28;20037;-71
2022/02/18 02:35:03;;;;;;;1.63;0.55;;;;;;;;;;5023775;28;20033;-71
2022/02/18 02:37:28;;;;;;;5.55;0.68;;;;;;;;;;5042451;28;20117;-70
2022/02/18 02:39:54;;;;;;;2.97;0.75;;;;;;;;;;5041872;28;20429;-71
2022/02/18 02:42:19;;;;;;;2.60;0.55;;;;;;;;;;5044209;28;20091;-71
2022/02/18 02:44:45;;;;;;;1.65;0.47;;;;;;;;;;5045117;28;20035;-71
2022/02/18 02:47:13;;;;;;;4.10;0.70;;;;;;;;;;5045653;28;20434;-70
2022/02/18 02:49:38;;;;;;;2.85;0.55;;;;;;;;;;5027335;28;20060;-70
2022/02/18 02:52:04;;;;;;;4.80;0.60;;;;;;;;;;5045750;28;20029;-70
2022/02/18 02:54:32;;;;;;;6.15;0.73;;;;;;;;;;5045674;28;20080;-70
2022/02/18 02:57:00;;;;;;;5.70;1.13;;;;;;;;;;5027718;28;20041;-71
2022/02/18 02:59:28;;;;;;;2.83;0.70;;;;;;;;;;5044820;28;20033;-70
2022/02/18 03:01:53;;;;;;;3.95;0.57;;;;;;;;;;5027921;28;20029;-71
2022/02/18 03:04:19;;;;;;;3.20;0.50;;;;;;;;;;5045426;28;20029;-69
2022/02/18 03:06:46;;;;;;;4.07;1.00;;;;;;;;;;5045428;28;20048;-70
2022/02/18 03:09:14;;;;;;;2.13;0.68;;;;;;;;;;5045146;28;20088;-71
2022/02/18 03:11:39;;;;;;;4.38;0.75;;;;;;;;;;5045534;28;20056;-70
2022/02/18 03:14:05;;;;;;;3.60;0.52;;;;;;;;;;5045372;28;20033;-70
2022/02/18 03:16:31;;;;;;;5.70;1.23;;;;;;;;;;5027449;28;20097;-72
2022/02/18 03:18:56;;;;;;;5.80;1.17;;;;;;;;;;5045200;28;20025;-71
2022/02/18 03:21:22;;;;;;;2.13;0.43;;;;;;;;;;5045235;28;20489;-71
2022/02/18 03:23:47;;;;;;;2.50;0.60;;;;;;;;;;5045163;28;20045;-71
2022/02/18 03:26:15;;;;;;;4.03;0.65;;;;;;;;;;5045203;28;20028;-70
2022/02/18 03:28:41;;;;;;;5.90;0.52;;;;;;;;;;5027273;28;20026;-70
2022/02/18 03:31:08;;;;;;;4.18;1.65;;;;;;;;;;5045097;28;20465;-71
2022/02/18 03:33:39;;;;;;;2.38;0.63;;;;;;;;;;5060544;28;20052;-70
2022/02/18 03:36:05;;;;;;;4.75;0.63;;;;;;;;;;5044912;28;20044;-71
2022/02/18 03:38:34;;;;;;;4.38;0.65;;;;;;;;;;5027071;28;20041;-70
2022/02/18 03:41:03;;;;;;;2.25;1.23;;;;;;;;;;5044852;28;20041;-71
2022/02/18 03:43:28;;;;;;;3.42;0.80;;;;;;;;;;5044592;28;20053;-71
2022/02/18 03:45:54;;;;;;;5.90;1.02;;;;;;;;;;5027273;28;20040;-70
2022/02/18 03:48:19;;;;;;;2.47;0.60;;;;;;;;;;5045182;28;20030;-70
2022/02/18 03:50:45;;;;;;;9.18;1.13;;;;;;;;;;5044417;28;20056;-71
2022/02/18 03:53:16;;;;;;;6.35;0.93;;;;;;;;;;5025946;28;20116;-71
2022/02/18 03:55:42;;;;;;;4.43;0.63;;;;;;;;;;5045009;28;20034;-72
2022/02/18 03:58:07;;;;;;;1.83;0.70;;;;;;;;;;5044723;28;20382;-71
2022/02/18 04:00:33;;;;;;;4.32;1.02;;;;;;;;;;5044347;28;20033;-71
2022/02/18 04:02:59;;;;;;;3.80;0.47;;;;;;;;;;5059814;28;20064;-71
2022/02/18 04:05:24;;;;;;;4.47;0.90;;;;;;;;;;5059763;28;20037;-71
2022/02/18 04:07:55;;;;;;;2.85;0.70;;;;;;;;;;5026462;28;20041;-71
2022/02/18 04:10:26;;;;;;;9.75;0.60;;;;;;;;;;5043985;28;20026;-71
2022/02/18 04:12:55;;;;;;;3.25;0.40;;;;;;;;;;5044766;28;20033;-73
2022/02/18 04:15:20;;;;;;;5.13;0.68;;;;;;;;;;5026339;28;20036;-71
2022/02/18 04:17:46;;;;;;;6.18;0.90;;;;;;;;;;5044584;28;20108;-71
2022/02/18 04:20:12;;;;;;;3.92;1.00;;;;;;;;;;5044346;28;20432;-71
2022/02/18 04:22:37;;;;;;;3.55;0.70;;;;;;;;;;5044373;28;20033;-71
2022/02/18 04:25:06;;;;;;;3.00;0.52;;;;;;;;;;5044383;28;20040;-70
2022/02/18 04:27:32;;;;;;;4.03;0.80;;;;;;;;;;5044525;28;20030;-71
2022/02/18 04:29:57;;;;;;;5.22;0.73;;;;;;;;;;5044041;28;20030;-71
2022/02/18 04:32:25;;;;;;;3.15;1.20;;;;;;;;;;5026059;28;20034;-71
2022/02/18 04:34:51;;;;;;;2.67;0.57;;;;;;;;;;5043758;28;20366;-70
2022/02/18 04:37:22;;;;;;;4.97;0.77;;;;;;;;;;5043760;28;20027;-71
2022/02/18 04:39:48;;;;;;;2.50;0.70;;;;;;;;;;5025525;28;20041;-71
2022/02/18 04:42:16;;;;;;;1.88;0.50;;;;;;;;;;5043380;28;20036;-70
2022/02/18 04:44:44;;;;;;;5.22;0.80;;;;;;;;;;5026088;28;20049;-73
2022/02/18 04:47:12;;;;;;;8.93;1.05;;;;;;;;;;5043559;28;20065;-70
2022/02/18 04:49:38;;;;;;;2.40;0.70;;;;;;;;;;5043560;28;20445;-70
2022/02/18 04:52:03;;;;;;;3.50;0.80;;;;;;;;;;5025790;28;20030;-71
2022/02/18 04:54:29;;;;;;;3.20;0.40;;;;;;;;;;5043625;28;20059;-70
2022/02/18 04:56:57;;;;;;;8.45;1.02;;;;;;;;;;5025803;28;20038;-70
2022/02/18 04:59:23;;;;;;;5.93;1.00;;;;;;;;;;5043146;28;20112;-71
2022/02/18 05:01:54;;;;;;;2.92;0.60;;;;;;;;;;5043444;28;20049;-70
2022/02/18 05:04:23;;;;;;;4.13;0.50;;;;;;;;;;5042849;28;20029;-70
2022/02/18 05:06:48;;;;;;;3.65;0.68;;;;;;;;;;5042800;28;20075;-70
2022/02/18 05:09:13;;;;;;;2.25;0.82;;;;;;;;;;5058365;28;20033;-70
2022/02/18 05:11:39;;;;;;;3.55;0.65;;;;;;;;;;5058547;28;20029;-70
2022/02/18 05:14:04;;;;;;;8.05;0.80;;;;;;;;;;5025408;28;20063;-70
2022/02/18 05:16:30;;;;;;;4.63;0.98;;;;;;;;;;5043671;28;20040;-70
2022/02/18 05:18:55;;;;;;;2.15;0.73;;;;;;;;;;5042893;28;20079;-71
2022/02/18 05:21:22;;;;;;;8.45;0.93;;;;;;;;;;5043320;28;20036;-71
2022/02/18 05:23:51;;;;;;;4.30;0.60;;;;;;;;;;5042766;28;20040;-70
2022/02/18 05:26:25;;;;;;;5.22;0.82;;;;;;;;;;5043520;28;20473;-70
2022/02/18 05:28:53;;;;;;;4.88;0.80;;;;;;;;;;5043189;28;20029;-70
2022/02/18 05:31:19;;;;;;;3.30;0.75;;;;;;;;;;5042938;28;20041;-71
2022/02/18 05:33:44;;;;;;;6.18;0.95;;;;;;;;;;5042732;28;20025;-70
2022/02/18 05:36:13;;;;;;;1.23;0.55;;;;;;;;;;5042869;28;20030;-70
2022/02/18 05:38:42;;;;;;;3.65;0.60;;;;;;;;;;5042869;28;20052;-70
2022/02/18 05:41:11;;;;;;;4.55;1.00;;;;;;;;;;5042598;28;20045;-70
2022/02/18 05:43:37;;;;;;;5.43;0.88;;;;;;;;;;5042597;28;20072;-71
2022/02/18 05:46:06;;;;;;;5.85;0.80;;;;;;;;;;5042936;28;20087;-70
2022/02/18 05:48:34;;;;;;;7.35;0.60;;;;;;;;;;5042502;28;20087;-70
2022/02/18 05:51:03;;;;;;;8.93;0.60;;;;;;;;;;5043012;28;20095;-70
2022/02/18 05:53:29;;;;;;;1.67;0.50;;;;;;;;;;5043222;28;20682;-70
2022/02/18 05:55:55;;;;;;;1.02;0.50;;;;;;;;;;5042923;28;20106;-71
2022/02/18 05:58:21;;;;;;;2.42;0.50;;;;;;;;;;5042500;28;20488;-71
2022/02/18 06:00:46;;;;;;;7.53;1.30;;;;;;;;;;5042521;28;20038;-71
2022/02/18 06:03:12;;;;;;;3.92;1.25;;;;;;;;;;5024996;28;20106;-70
2022/02/18 06:05:40;;;;;;;4.15;0.55;;;;;;;;;;5043052;28;20382;-71
2022/02/18 06:08:06;;;;;;;4.22;0.60;;;;;;;;;;5042462;28;20045;-69
2022/02/18 06:10:32;;;;;;;2.75;0.50;;;;;;;;;;5024785;28;20036;-71
2022/02/18 06:12:58;;;;;;;3.20;0.85;;;;;;;;;;5042680;28;20055;-71
2022/02/18 06:15:23;;;;;;;5.53;1.33;;;;;;;;;;5042481;28;20492;-70
2022/02/18 06:17:49;;;;;;;7.32;1.05;;;;;;;;;;5045744;28;20455;-70
2022/02/18 06:20:17;;;;;;;8.88;1.00;;;;;;;;;;5046726;28;20025;-70
2022/02/18 06:22:45;;;;;;;7.22;1.13;;;;;;;;;;5046830;28;20030;-70
2022/02/18 06:25:12;;;;;;;2.45;0.90;;;;;;;;;;5061927;28;20030;-70
2022/02/18 06:27:37;;;;;;;6.32;1.20;;;;;;;;;;5046496;28;20022;-71
2022/02/18 06:30:03;;;;;;;2.47;0.50;;;;;;;;;;5028575;28;20029;-70
2022/02/18 06:32:29;;;;;;;5.43;1.23;;;;;;;;;;5046261;28;20029;-70
2022/02/18 06:34:54;;;;;;;3.90;0.75;;;;;;;;;;5046358;28;20144;-70
2022/02/18 06:37:22;;;;;;;2.85;0.73;;;;;;;;;;5061274;28;20499;-71
2022/02/18 06:39:50;;;;;;;2.67;0.50;;;;;;;;;;5061577;28;20046;-70
2022/02/18 06:42:19;;;;;;;8.55;0.93;;;;;;;;;;5046891;28;20059;-71
2022/02/18 06:44:47;;;;;;;5.10;0.80;;;;;;;;;;5046684;28;20038;-70
2022/02/18 06:47:15;;;;;;;6.30;0.85;;;;;;;;;;5028682;28;20029;-71
2022/02/18 06:49:44;;;;;;;5.00;0.70;;;;;;;;;;5046438;28;20056;-70
2022/02/18 06:52:14;;;;;;;4.75;0.95;;;;;;;;;;5046509;28;20037;-70
2022/02/18 06:54:42;;;;;;;7.35;1.10;;;;;;;;;;5045968;28;20026;-70
2022/02/18 06:57:14;;;;;;;2.90;0.77;;;;;;;;;;5061419;28;20025;-70
2022/02/18 06:59:39;;;;;;;4.45;1.08;;;;;;;;;;5027952;28;20029;-70
2022/02/18 07:02:10;;;;;;;3.35;0.98;;;;;;;;;;5045761;28;20044;-70
2022/02/18 07:04:36;;;;;;;4.10;0.43;;;;;;;;;;5046040;28;20025;-71
2022/02/18 07:07:02;;;;;;;4.03;0.82;;;;;;;;;;5027958;28;20025;-70
2022/02/18 07:09:27;;;;;;;4.70;1.00;;;;;;;;;;5060557;28;20120;-71
2022/02/18 07:11:52;;;;;;;7.13;1.85;;;;;;;;;;5045872;28;20063;-71
2022/02/18 07:14:25;;;;;;;7.22;1.52;;;;;;;;;;5045627;28;20057;-71
2022/02/18 07:16:53;;;;;;;4.88;0.90;;;;;;;;;;5045759;28;20086;-71
2022/02/18 07:19:19;;;;;;;2.75;0.40;;;;;;;;;;5027613;28;20037;-70
2022/02/18 07:21:49;;;;;;;4.53;0.65;;;;;;;;;;5045636;28;20228;-71
2022/02/18 07:24:17;;;;;;;4.68;0.88;;;;;;;;;;5045162;28;20431;-71
2022/02/18 07:26:48;;;;;;;7.05;1.30;;;;;;;;;;5027497;28;20029;-71
2022/02/18 07:29:16;;;;;;;6.40;1.10;;;;;;;;;;5025845;28;20872;-72
2022/02/18 07:31:44;;;;;;;6.07;1.63;;;;;;;;;;5027404;28;20025;-71
2022/02/18 17:27:11;;;;;;;10.43;1.08;;;;;;;;;;5004229;23;20055;-68
2022/02/18 17:29:36;;;;;;;9.75;0.90;;;;;;;;;;4982388;28;20384;-68
2022/02/18 17:32:02;;;;;;;9.35;2.10;;;;;;;;;;4966619;28;20034;-67
2022/02/18 17:34:27;;;;;;;7.15;1.05;;;;;;;;;;4985416;28;20027;-68
2022/02/18 17:36:53;;;;;;;4.07;1.25;;;;;;;;;;4985166;28;20089;-69
2022/02/18 17:39:18;;;;;;;7.40;1.80;;;;;;;;;;4967428;28;20042;-68
2022/02/18 17:41:44;;;;;;;7.75;1.38;;;;;;;;;;4967973;28;20062;-68
2022/02/18 17:44:09;;;;;;;8.60;1.60;;;;;;;;;;5002246;28;20557;-68
2022/02/18 17:46:38;;;;;;;9.15;2.60;;;;;;;;;;5003767;28;20371;-68
2022/02/18 17:51:30;;;;;;;12.88;1.25;;;;;;;;;;4985248;28;20038;-67
2022/02/18 17:53:55;;;;;;;9.63;1.30;;;;;;;;;;4984646;28;20316;-68
2022/02/18 17:56:20;;;;;;;4.93;0.57;;;;;;;;;;4982037;28;20027;-70
2022/02/18 17:58:46;;;;;;;6.60;1.25;;;;;;;;;;4983101;28;20022;-68
2022/02/18 18:01:50;;;;;;;8.45;1.60;;;;;;;;;;4967114;28;20085;-68
2022/02/18 18:04:15;;;;;;;10.88;2.28;;;;;;;;;;4966147;28;20114;-68
2022/02/18 18:06:41;;;;;;;9.15;2.05;;;;;;;;;;4963180;28;20396;-67
2022/02/18 18:09:07;;;;;;;14.55;2.05;;;;;;;;;;4966061;28;20054;-69
2022/02/18 18:11:32;;;;;;;8.95;1.42;;;;;;;;;;4967640;28;20547;-68
2022/02/18 18:13:57;;;;;;;15.88;2.20;;;;;;;;;;4988562;28;20033;-68
2022/02/18 18:16:23;;;;;;;21.55;2.95;;;;;;;;;;4988847;28;20058;-69
2022/02/18 18:18:50;;;;;;;8.00;1.55;;;;;;;;;;4987216;28;20050;-68
2022/02/18 18:21:16;;;;;;;9.82;2.05;;;;;;;;;;4987348;28;20023;-69
2022/02/18 18:23:42;;;;;;;16.83;2.05;;;;;;;;;;4969627;28;20026;-69
2022/02/18 18:26:08;;;;;;;8.70;1.50;;;;;;;;;;4969087;28;20038;-69
2022/02/18 18:28:34;;;;;;;9.02;1.90;;;;;;;;;;4969478;28;20035;-69
2022/02/18 18:30:59;;;;;;;15.63;3.22;;;;;;;;;;4969312;28;20340;-69
2022/02/18 18:33:25;;;;;;;11.85;2.03;;;;;;;;;;4986877;28;20046;-70
2022/02/18 18:35:51;;;;;;;8.90;1.95;;;;;;;;;;4988186;28;20019;-69
2022/02/18 18:38:20;;;;;;;14.23;2.45;;;;;;;;;;4987889;28;20046;-69
2022/02/18 18:40:46;;;;;;;16.35;2.25;;;;;;;;;;4969350;29;20031;-69
2022/02/18 18:43:12;;;;;;;17.35;2.35;;;;;;;;;;4969194;29;20031;-69
2022/02/18 18:45:38;;;;;;;26.35;3.08;;;;;;;;;;4969309;29;20074;-69
2022/02/18 18:48:03;;;;;;;14.27;2.65;;;;;;;;;;4969114;29;20027;-69
2022/02/18 18:50:29;;;;;;;14.18;2.13;;;;;;;;;;4969151;29;20051;-69
2022/02/18 18:52:56;;;;;;;15.07;2.60;;;;;;;;;;4968863;29;20066;-70
2022/02/18 18:55:22;;;;;;;16.50;2.72;;;;;;;;;;4969189;29;20549;-69
2022/02/18 18:57:48;;;;;;;15.73;2.88;;;;;;;;;;4969122;29;20039;-69
2022/02/18 19:00:14;;;;;;;20.60;2.28;;;;;;;;;;4968669;29;20066;-69
2022/02/18 19:09:55;;;;;;;20.30;2.67;;;;;;;;;;5016575;23;20046;-75
2022/02/18 19:12:20;;;;;;;10.50;1.58;;;;;;;;;;4986078;28;20035;-75
2022/02/18 19:14:46;;;;;;;16.15;2.40;;;;;;;;;;4987076;28;20033;-75
2022/02/18 19:17:12;;;;;;;23.75;2.70;;;;;;;;;;4978749;28;20035;-75
2022/02/18 19:19:40;;;;;;;16.58;2.08;;;;;;;;;;4985958;28;20049;-75
2022/02/18 19:22:08;;;;;;;21.60;2.75;;;;;;;;;;4987387;28;20074;-76
2022/02/18 19:24:33;;;;;;;11.45;1.98;;;;;;;;;;4986132;28;20050;-75
2022/02/18 19:26:59;;;;;;;15.18;1.65;;;;;;;;;;4987527;28;20090;-75
2022/02/18 19:29:24;;;;;;;9.88;1.75;;;;;;;;;;4987540;28;20086;-75
2022/02/18 19:31:50;;;;;;;6.15;1.75;;;;;;;;;;4984697;28;20113;-75
2022/02/18 19:34:15;;;;;;;13.35;1.27;;;;;;;;;;4987357;28;20110;-75
2022/02/18 19:36:42;;;;;;;4.72;1.00;;;;;;;;;;4987262;28;20029;-75
2022/02/18 19:39:09;;;;;;;5.22;1.20;;;;;;;;;;4969651;28;20031;-75
2022/02/18 19:41:36;;;;;;;4.95;1.30;;;;;;;;;;4969785;28;20035;-75
2022/02/18 19:44:02;;;;;;;1.95;0.50;;;;;;;;;;4978047;28;20061;-75
2022/02/18 19:46:28;;;;;;;3.92;0.82;;;;;;;;;;4987011;28;20026;-75
2022/02/18 19:48:54;;;;;;;12.10;1.30;;;;;;;;;;4987152;28;20026;-76
2022/02/18 19:51:20;;;;;;;4.35;0.90;;;;;;;;;;4972209;28;20027;-75
2022/02/18 19:53:47;;;;;;;3.03;0.68;;;;;;;;;;4968731;28;20042;-75
2022/02/18 19:56:13;;;;;;;4.05;0.93;;;;;;;;;;4978004;28;20027;-75
2022/02/18 19:58:38;;;;;;;5.78;1.20;;;;;;;;;;4967643;29;20062;-75
2022/02/18 20:01:04;;;;;;;5.00;0.68;;;;;;;;;;4967545;29;20058;-76
2022/02/18 20:03:29;;;;;;;4.13;0.50;;;;;;;;;;4968424;28;20031;-74
2022/02/18 20:05:56;;;;;;;2.08;0.70;;;;;;;;;;4967913;28;20051;-75
2022/02/18 20:08:23;;;;;;;2.58;0.50;;;;;;;;;;4967409;29;20031;-75
2022/02/18 20:10:52;;;;;;;4.85;0.88;;;;;;;;;;4949660;29;20579;-74
2022/02/18 20:13:18;;;;;;;2.55;0.52;;;;;;;;;;4967664;28;20087;-75
2022/02/18 20:15:43;;;;;;;2.95;0.63;;;;;;;;;;4967480;28;20094;-75
2022/02/18 20:18:16;;;;;;;2.25;0.50;;;;;;;;;;4962403;28;20022;-74
2022/02/18 20:20:46;;;;;;;3.75;0.70;;;;;;;;;;4968704;28;20027;-75
2022/02/18 20:23:15;;;;;;;4.28;0.52;;;;;;;;;;4986469;28;20060;-75
2022/02/18 20:25:45;;;;;;;2.58;0.68;;;;;;;;;;4968794;28;20019;-74
2022/02/18 20:28:13;;;;;;;3.60;0.60;;;;;;;;;;4968719;28;20026;-75
2022/02/18 20:30:39;;;;;;;2.60;0.57;;;;;;;;;;4984913;28;20030;-75
2022/02/18 20:33:09;;;;;;;3.75;0.50;;;;;;;;;;4968503;28;20381;-74
2022/02/18 20:35:34;;;;;;;1.25;0.47;;;;;;;;;;4984270;28;20030;-74
2022/02/18 20:38:02;;;;;;;1.65;0.30;;;;;;;;;;4971131;28;20122;-74
2022/02/18 20:40:29;;;;;;;2.00;0.50;;;;;;;;;;4979632;28;20037;-75
2022/02/18 20:42:55;;;;;;;4.45;0.82;;;;;;;;;;4983042;28;20062;-74
2022/02/18 20:45:20;;;;;;;0.88;0.20;;;;;;;;;;5003904;28;20029;-74
2022/02/18 20:47:46;;;;;;;1.10;0.32;;;;;;;;;;4985805;28;20019;-74
2022/02/18 20:50:12;;;;;;;2.00;0.47;;;;;;;;;;4986435;28;20034;-74
2022/02/18 20:52:39;;;;;;;3.35;1.13;;;;;;;;;;4968590;28;20505;-74
2022/02/18 20:55:08;;;;;;;1.45;0.30;;;;;;;;;;4986008;28;20031;-74
2022/02/18 20:57:37;;;;;;;1.20;0.40;;;;;;;;;;4970187;28;20054;-75
2022/02/18 21:00:07;;;;;;;3.20;0.47;;;;;;;;;;5005337;28;20122;-75
2022/02/18 21:02:33;;;;;;;1.27;0.40;;;;;;;;;;5005175;28;20081;-75
2022/02/18 21:04:59;;;;;;;2.05;1.02;;;;;;;;;;5005227;28;20507;-75
2022/02/18 21:07:29;;;;;;;0.43;0.32;;;;;;;;;;4995841;28;20055;-75
2022/02/18 21:09:54;;;;;;;1.60;0.47;;;;;;;;;;4983908;28;20047;-75
2022/02/18 21:12:24;;;;;;;2.55;0.30;;;;;;;;;;4985466;28;20062;-75
2022/02/18 21:14:50;;;;;;;1.33;0.40;;;;;;;;;;4984215;28;20050;-76
2022/02/18 21:17:19;;;;;;;3.67;0.50;;;;;;;;;;4984946;28;20031;-76
2022/02/18 21:19:44;;;;;;;1.52;0.43;;;;;;;;;;4968027;28;20042;-77
2022/02/18 21:22:10;;;;;;;1.42;0.47;;;;;;;;;;4985407;28;20391;-77
2022/02/18 21:24:36;;;;;;;2.67;0.47;;;;;;;;;;4970708;28;20125;-76
2022/02/18 21:27:02;;;;;;;0.50;0.40;;;;;;;;;;4985143;28;20026;-76
2022/02/18 21:29:28;;;;;;;1.83;0.38;;;;;;;;;;4967863;28;20062;-77
2022/02/18 21:31:53;;;;;;;1.80;0.50;;;;;;;;;;4984922;28;20026;-73
2022/02/18 21:34:19;;;;;;;0.88;0.40;;;;;;;;;;4985513;28;20053;-78
2022/02/18 21:36:45;;;;;;;2.60;0.47;;;;;;;;;;4985059;28;20034;-78
2022/02/18 21:39:15;;;;;;;1.98;0.47;;;;;;;;;;4985054;28;20470;-79
2022/02/18 21:41:42;;;;;;;2.22;0.38;;;;;;;;;;4967722;28;20022;-79
2022/02/18 21:44:08;;;;;;;0.30;0.28;;;;;;;;;;4967731;28;20027;-77
2022/02/18 21:46:34;;;;;;;0.75;0.38;;;;;;;;;;4966935;28;20026;-75
2022/02/18 21:48:59;;;;;;;1.63;0.30;;;;;;;;;;4985153;28;20026;-75
2022/02/18 21:51:25;;;;;;;0.32;0.17;;;;;;;;;;4985206;28;20033;-79
2022/02/18 21:53:53;;;;;;;1.75;0.45;;;;;;;;;;4985114;28;20084;-77
2022/02/18 21:56:21;;;;;;;0.32;0.30;;;;;;;;;;4984909;28;20093;-75
2022/02/18 21:58:47;;;;;;;1.10;0.20;;;;;;;;;;4967647;28;20053;-78
2022/02/18 22:01:12;;;;;;;1.85;0.30;;;;;;;;;;4967495;28;20034;-76
2022/02/18 22:03:41;;;;;;;0.10;0.10;;;;;;;;;;4967554;28;20030;-75
2022/02/18 22:06:06;;;;;;;0.82;0.30;;;;;;;;;;4985078;28;20034;-77
2022/02/18 22:08:32;;;;;;;0.75;0.25;;;;;;;;;;4967516;28;20100;-75
2022/02/18 22:11:00;;;;;;;0.15;0.15;;;;;;;;;;4967081;28;20395;-76
2022/02/18 22:13:28;;;;;;;0.60;0.17;;;;;;;;;;4985058;28;20475;-77
2022/02/18 22:15:53;;;;;;;1.88;0.28;;;;;;;;;;4967126;28;20074;-76
2022/02/18 22:18:21;;;;;;;0.10;0.10;;;;;;;;;;4984795;28;20027;-77
2022/02/18 22:20:46;;;;;;;0.10;0.10;;;;;;;;;;4984942;28;20037;-77
2022/02/18 22:23:12;;;;;;;0.10;0.10;;;;;;;;;;4984824;28;20062;-77
2022/02/18 22:25:37;;;;;;;0.20;0.20;;;;;;;;;;4967289;28;20031;-76
2022/02/18 22:28:03;;;;;;;0.20;0.20;;;;;;;;;;4984336;28;20031;-76
2022/02/18 22:30:29;;;;;;;0.20;0.20;;;;;;;;;;4984849;28;20427;-76
2022/02/18 22:32:54;;;;;;;0.63;0.20;;;;;;;;;;4984676;28;20082;-75
2022/02/18 22:35:20;;;;;;;0.20;0.20;;;;;;;;;;4984760;28;20022;-75
2022/02/18 22:37:48;;;;;;;0.10;0.10;;;;;;;;;;4984644;28;20023;-76
2022/02/18 22:40:13;;;;;;;0.20;0.20;;;;;;;;;;4967060;28;20027;-75
2022/02/18 22:42:39;;;;;;;0.10;0.10;;;;;;;;;;4984346;28;20033;-74
2022/02/18 22:45:08;;;;;;;0.95;0.20;;;;;;;;;;4984777;28;20023;-75
2022/02/18 22:47:35;;;;;;;0.73;0.20;;;;;;;;;;4984574;28;20035;-74
2022/02/18 22:50:01;;;;;;;3.03;0.20;;;;;;;;;;4984750;28;20023;-73
2022/02/18 22:52:29;;;;;;;0.10;0.10;;;;;;;;;;4984504;28;20030;-73
2022/02/18 22:54:57;;;;;;;0.95;0.13;;;;;;;;;;4984550;28;20441;-73
2022/02/18 22:57:22;;;;;;;0.30;0.20;;;;;;;;;;4966809;28;20459;-74
2022/02/18 22:59:48;;;;;;;0.85;0.30;;;;;;;;;;4987570;28;20063;-73
2022/02/18 23:02:13;;;;;;;0.20;0.20;;;;;;;;;;4988012;28;20022;-74
2022/02/18 23:04:41;;;;;;;1.35;0.30;;;;;;;;;;4987844;28;20030;-72
2022/02/18 23:07:06;;;;;;;0.75;0.25;;;;;;;;;;4970483;28;20046;-73
2022/02/18 23:09:31;;;;;;;1.20;0.38;;;;;;;;;;4970211;28;20050;-73
2022/02/18 23:12:00;;;;;;;0.50;0.20;;;;;;;;;;4987903;28;20082;-73
2022/02/18 23:14:26;;;;;;;0.40;0.35;;;;;;;;;;4987864;28;20030;-74
2022/02/18 23:16:52;;;;;;;3.67;0.55;;;;;;;;;;4987686;28;20042;-72
2022/02/18 23:19:18;;;;;;;1.75;0.65;;;;;;;;;;4987587;28;20027;-73
2022/02/18 23:21:46;;;;;;;1.08;0.50;;;;;;;;;;4987508;28;20041;-74
2022/02/18 23:24:11;;;;;;;0.50;0.50;;;;;;;;;;4987731;28;20034;-74
2022/02/18 23:26:37;;;;;;;2.90;0.98;;;;;;;;;;4987428;28;20094;-72
2022/02/18 23:29:03;;;;;;;2.58;1.08;;;;;;;;;;4970247;28;20085;-71
2022/02/18 23:31:28;;;;;;;2.60;0.93;;;;;;;;;;4987436;28;20559;-73
2022/02/18 23:33:54;;;;;;;4.72;0.95;;;;;;;;;;4987564;28;20023;-74
2022/02/18 23:36:19;;;;;;;5.05;0.90;;;;;;;;;;4987184;28;20054;-74
2022/02/18 23:38:47;;;;;;;4.40;1.15;;;;;;;;;;4987305;28;20073;-74
2022/02/18 23:41:12;;;;;;;4.75;1.10;;;;;;;;;;4969749;28;20030;-74
2022/02/18 23:43:41;;;;;;;6.07;1.42;;;;;;;;;;4969889;28;20436;-74
2022/02/18 23:46:06;;;;;;;3.03;1.00;;;;;;;;;;4969795;28;20027;-75
2022/02/18 23:48:31;;;;;;;3.90;1.27;;;;;;;;;;4987026;28;20464;-74
2022/02/18 23:50:57;;;;;;;6.25;1.98;;;;;;;;;;4969420;28;20027;-74
2022/02/18 23:53:22;;;;;;;6.70;1.58;;;;;;;;;;4987349;28;20019;-73
2022/02/18 23:55:48;;;;;;;10.25;2.40;;;;;;;;;;4987238;28;20029;-73
2022/02/18 23:58:16;;;;;;;5.72;2.08;;;;;;;;;;4969509;28;20030;-73
